Hlavní strana
METAR-TAF:

METAR-TAF

Letiště :

Letiště Managua

Managua, Nikaragua

zeměpisná šířka: 12-09N, zeměpisná délka: 086-10W, výška: 50 m

Aktuální stav počasí

Zpráva byla vytvořena před 37 minutami, v 09:00 UTC
Východojihovýchodní vítr 10 kt
Teplota 26°C
Vlhkost vzduchu 58%
Tlak 1011 hPa
Viditelnost 10 km a více
Skoro jasno ve výšce 2000 ft
Polojasno ve výšce 7000 ft

METAR: MNMG 240900Z 11010KT 9999 FEW020 SCT070 26/17 Q1010 A2985 NOSIG

Čas: 03:37 (09:37 UTC)

Předpověď počasí

Zpráva byla vytvořena před 5 hodinami a 52 minutami, v 03:45 UTC
Předpověď platná od 24 v 06 UTC do 25 v 06 UTC
Východojihovýchodní vítr 10 kt
Viditelnost 10 km a více
Skoro jasno ve výšce 2200 ft
Polojasno ve výšce 7000 ft
Změna
od 24 v 14 UTC do 24 v 16 UTC
Východní vítr 10 kt s nárazy do 20 kt
Polojasno ve výšce 2200 ft

TAF: MNMG 240345Z 2406/2506 12010KT 9999 FEW022 SCT070 BECMG 2414/2416 08010G20KT SCT022

Stav a předpovědi počasí z více než 4 000 letišť (zprávy METAR a TAF).

Červené a žluté tečky na mapě představují dostupné meteorologické stanice.

Když kurzor umístíte na tečku, zobrazí se název stanice.

Pak kliknutím zobrazíte stav a předpověď počasí.

Chcete-li změnit mapu, kliknutím na zelené tlačítko se znaménkem +mapu přiblížíte, kliknutím na zelené tlačítko se znaménkem – mapu oddálíte a kliknutím na zelené šipky přejdete na sousední mapy.


METAR-TAF: